Time;durP1;ratioP1;P1;durP2;ratioP2;P2;SDS_P1;SDS_P2;PMS_P1;PMS_P2;Temp;Humidity;BMP_temperature;BMP_pressure;BME280_temperature;BME280_humidity;BME280_pressure;Samples;Min_cycle;Max_cycle;Signal;HPM_P1;HPM_P2
2023/04/11 00:00:40;;;;;;;;;;;;;;;18.22;66.05;100604.00;7398338;19;1174;-46
2023/04/11 00:03:10;;;;;;;;;;;;;;;18.24;66.28;100602.03;7397002;19;1492;-46
2023/04/11 00:05:39;;;;;;;;;;;;;;;18.26;65.84;100608.09;7397257;19;1542;-46
2023/04/11 00:08:07;;;;;;;;;;;;;;;18.22;66.28;100577.22;7396709;19;1475;-46
2023/04/11 00:10:36;;;;;;;;;;;;;;;18.27;65.97;100594.59;7396694;19;1613;-46
2023/04/11 00:13:06;;;;;;;;;;;;;;;18.24;65.97;100586.84;7396994;19;1849;-46
2023/04/11 00:15:35;;;;;;;;;;;;;;;18.24;65.89;100573.47;7397032;19;1204;-46
2023/04/11 00:18:03;;;;;;;;;;;;;;;18.22;66.13;100582.59;7396866;19;1525;-46
2023/04/11 00:20:34;;;;;;;;;;;;;;;18.20;66.05;100561.31;7397353;19;1219;-46
2023/04/11 00:23:02;;;;;;;;;;;;;;;18.23;65.98;100565.56;7396001;19;1261;-46
2023/04/11 00:25:31;;;;;;;;;;;;;;;18.23;66.27;100565.56;7396755;19;1149;-46
2023/04/11 00:28:00;;;;;;;;;;;;;;;18.16;66.31;100562.56;7395305;19;1527;-46
2023/04/11 00:30:28;;;;;;;;;;;;;;;18.16;66.11;100543.81;7397023;19;1201;-46
2023/04/11 00:32:56;;;;;;;;;;;;;;;18.16;66.12;100549.19;7395582;19;1863;-46
2023/04/11 00:35:25;;;;;;;;;;;;;;;18.15;66.19;100552.00;7395737;19;1578;-46
2023/04/11 00:37:57;;;;;;;;;;;;;;;18.15;66.27;100546.66;7396204;19;1471;-46
2023/04/11 00:40:25;;;;;;;;;;;;;;;18.18;66.24;100555.25;7396195;19;1273;-46
2023/04/11 00:42:54;;;;;;;;;;;;;;;18.12;66.44;100555.78;7396636;19;1425;-46
2023/04/11 00:45:22;;;;;;;;;;;;;;;18.16;66.42;100545.66;7395797;19;1379;-46
2023/04/11 00:47:51;;;;;;;;;;;;;;;18.11;66.31;100559.47;7396193;19;1287;-46
2023/04/11 00:50:21;;;;;;;;;;;;;;;18.11;66.55;100547.91;7396041;19;1251;-46
2023/04/11 00:52:51;;;;;;;;;;;;;;;18.12;65.88;100553.09;7395935;19;1826;-46
2023/04/11 00:55:23;;;;;;;;;;;;;;;18.12;66.05;100546.91;7396539;19;1150;-47
2023/04/11 00:57:53;;;;;;;;;;;;;;;18.07;66.23;100556.19;7396341;19;1138;-46
2023/04/11 01:00:22;;;;;;;;;;;;;;;18.05;66.70;100547.47;7395974;19;1873;-46
2023/04/11 01:02:51;;;;;;;;;;;;;;;18.16;66.77;100559.88;7395521;19;1654;-46
2023/04/11 01:05:19;;;;;;;;;;;;;;;18.07;67.15;100555.34;7394888;19;1206;-46
2023/04/11 01:07:50;;;;;;;;;;;;;;;18.07;67.51;100561.56;7395489;19;1559;-47
2023/04/11 01:10:19;;;;;;;;;;;;;;;18.07;67.06;100563.38;7396194;19;1542;-46
2023/04/11 01:12:50;;;;;;;;;;;;;;;18.06;67.28;100548.28;7394672;19;1869;-46
2023/04/11 01:15:18;;;;;;;;;;;;;;;18.12;66.94;100542.41;7395535;19;1534;-46
2023/04/11 01:17:47;;;;;;;;;;;;;;;18.10;66.88;100541.69;7395299;19;1312;-46
2023/04/11 01:20:15;;;;;;;;;;;;;;;18.12;67.03;100542.41;7394625;19;1439;-47
2023/04/11 01:22:44;;;;;;;;;;;;;;;18.11;66.81;100524.66;7395269;19;1117;-46
2023/04/11 01:25:16;;;;;;;;;;;;;;;18.07;66.77;100525.94;7402125;19;1024;-47
2023/04/11 01:27:44;;;;;;;;;;;;;;;18.07;66.73;100533.94;7402230;19;1479;-46
2023/04/11 01:30:14;;;;;;;;;;;;;;;18.04;66.89;100515.47;7403113;19;1011;-46
2023/04/11 01:32:42;;;;;;;;;;;;;;;18.11;67.01;100516.63;7401419;19;1856;-46
2023/04/11 01:35:11;;;;;;;;;;;;;;;18.01;66.78;100529.97;7401980;19;1558;-46
2023/04/11 01:37:40;;;;;;;;;;;;;;;18.13;66.46;100511.16;7403198;19;1540;-46
2023/04/11 01:40:09;;;;;;;;;;;;;;;18.04;66.78;100502.94;7401881;19;1491;-46
2023/04/11 01:42:40;;;;;;;;;;;;;;;18.05;66.87;100514.50;7401680;19;1963;-46
2023/04/11 01:45:09;;;;;;;;;;;;;;;18.19;66.89;100505.25;7401548;19;1450;-46
2023/04/11 01:47:38;;;;;;;;;;;;;;;19.20;63.77;100500.56;7401748;19;1193;-46
2023/04/11 01:50:06;;;;;;;;;;;;;;;19.72;62.65;100484.94;7401752;19;1479;-46
2023/04/11 01:52:35;;;;;;;;;;;;;;;20.15;61.39;100483.44;7402257;19;1865;-46
2023/04/11 01:55:03;;;;;;;;;;;;;;;20.19;61.18;100482.19;7400680;19;1469;-46
2023/04/11 01:57:31;;;;;;;;;;;;;;;20.17;61.42;100483.31;7400022;19;1229;-46
2023/04/11 02:00:04;;;;;;;;;;;;;;;20.17;61.43;100488.69;7399252;19;1720;-46
2023/04/11 02:02:33;;;;;;;;;;;;;;;20.16;61.54;100485.16;7401734;19;1504;-46
2023/04/11 02:05:02;;;;;;;;;;;;;;;20.21;61.49;100485.56;7400642;19;1197;-47
2023/04/11 02:07:30;;;;;;;;;;;;;;;20.18;61.80;100485.84;7401178;19;1488;-46
2023/04/11 02:09:59;;;;;;;;;;;;;;;20.23;61.55;100483.56;7401031;19;1487;-46
2023/04/11 02:12:27;;;;;;;;;;;;;;;20.25;61.60;100486.94;7401819;19;1832;-47
2023/04/11 02:14:56;;;;;;;;;;;;;;;20.25;61.45;100484.25;7400902;19;1558;-46
2023/04/11 02:17:29;;;;;;;;;;;;;;;20.29;61.29;100471.34;7401200;19;1507;-46
2023/04/11 02:19:58;;;;;;;;;;;;;;;20.35;61.42;100483.34;7400037;19;1412;-46
2023/04/11 02:22:26;;;;;;;;;;;;;;;20.45;61.16;100484.13;7400707;19;1144;-46
2023/04/11 02:24:54;;;;;;;;;;;;;;;20.48;60.82;100464.19;7401441;19;1194;-46
2023/04/11 02:27:23;;;;;;;;;;;;;;;20.45;61.07;100470.69;7401090;19;1479;-46
2023/04/11 02:29:51;;;;;;;;;;;;;;;20.60;60.69;100468.38;7401299;19;1165;-47
2023/04/11 02:32:19;;;;;;;;;;;;;;;20.63;60.55;100476.97;7401037;19;1629;-46
2023/04/11 02:34:50;;;;;;;;;;;;;;;20.52;60.86;100465.56;7395744;19;1830;-46
2023/04/11 02:37:18;;;;;;;;;;;;;;;20.42;61.23;100461.09;7399909;19;1192;-47
2023/04/11 02:39:47;;;;;;;;;;;;;;;20.52;60.92;100441.41;7400068;19;1467;-47
2023/04/11 02:42:15;;;;;;;;;;;;;;;20.59;60.43;100435.28;7400666;19;1559;-46
2023/04/11 02:44:43;;;;;;;;;;;;;;;20.68;60.52;100441.56;7399312;19;1435;-47
2023/04/11 02:47:11;;;;;;;;;;;;;;;20.65;60.49;100448.09;7400758;19;1076;-47
2023/04/11 02:49:41;;;;;;;;;;;;;;;20.70;60.46;100436.03;7399450;19;1851;-47
2023/04/11 02:52:12;;;;;;;;;;;;;;;20.74;60.43;100450.84;7399837;19;1555;-46
2023/04/11 02:54:40;;;;;;;;;;;;;;;20.77;60.37;100432.59;7396470;19;1855;-47
2023/04/11 02:57:08;;;;;;;;;;;;;;;20.72;60.44;100424.13;7399885;19;1634;-47
2023/04/11 02:59:36;;;;;;;;;;;;;;;20.77;60.47;100434.41;7397788;19;1979;-47
2023/04/11 03:02:05;;;;;;;;;;;;;;;20.83;60.18;100434.66;7399161;19;1654;-47
2023/04/11 03:04:33;;;;;;;;;;;;;;;20.74;60.45;100434.75;7398599;19;1431;-47
2023/04/11 03:07:01;;;;;;;;;;;;;;;20.58;60.83;100428.19;7400389;19;1209;-47
2023/04/11 03:09:32;;;;;;;;;;;;;;;20.50;61.23;100422.72;7398248;19;1851;-46
2023/04/11 03:12:00;;;;;;;;;;;;;;;20.58;60.88;100422.81;7397963;19;1593;-47
2023/04/11 03:14:28;;;;;;;;;;;;;;;20.64;60.67;100424.06;7397544;19;1866;-47
2023/04/11 03:16:57;;;;;;;;;;;;;;;20.66;60.70;100420.22;7397037;19;1121;-47
2023/04/11 03:19:25;;;;;;;;;;;;;;;20.81;60.12;100422.34;7398393;19;1551;-47
2023/04/11 03:21:54;;;;;;;;;;;;;;;20.85;60.30;100423.75;7398915;19;1797;-47
2023/04/11 03:24:22;;;;;;;;;;;;;;;20.88;60.44;100422.59;7398703;19;1547;-47
2023/04/11 03:26:53;;;;;;;;;;;;;;;20.86;60.45;100422.72;7399577;19;1541;-47
2023/04/11 03:29:21;;;;;;;;;;;;;;;20.89;60.07;100425.13;7399770;19;1110;-47
2023/04/11 03:31:50;;;;;;;;;;;;;;;20.80;60.55;100412.63;7398794;19;1550;-47
2023/04/11 03:34:20;;;;;;;;;;;;;;;20.68;60.84;100411.19;7396472;19;1872;-47
2023/04/11 03:36:48;;;;;;;;;;;;;;;20.55;60.97;100404.31;7398220;19;1799;-47
2023/04/11 03:39:17;;;;;;;;;;;;;;;20.55;61.04;100411.53;7398694;19;1099;-47
2023/04/11 03:41:45;;;;;;;;;;;;;;;20.66;60.80;100397.88;7397326;19;1863;-46
2023/04/11 03:44:16;;;;;;;;;;;;;;;20.80;60.36;100404.56;7397879;19;1848;-46
2023/04/11 03:46:44;;;;;;;;;;;;;;;20.76;60.46;100387.88;7396696;19;1289;-46
2023/04/11 03:49:12;;;;;;;;;;;;;;;20.88;60.29;100395.72;7397369;19;1567;-47
2023/04/11 03:51:41;;;;;;;;;;;;;;;20.94;60.30;100392.38;7397523;19;1550;-47
2023/04/11 03:54:09;;;;;;;;;;;;;;;20.96;60.17;100385.84;7393645;19;1855;-46
2023/04/11 03:56:37;;;;;;;;;;;;;;;20.96;60.20;100383.16;7398314;19;1173;-46
2023/04/11 03:59:05;;;;;;;;;;;;;;;20.82;60.34;100386.44;7395963;19;1481;-47
2023/04/11 04:01:37;;;;;;;;;;;;;;;20.53;61.29;100398.28;7397102;19;1589;-46
2023/04/11 04:04:06;;;;;;;;;;;;;;;20.17;62.19;100386.66;7396852;19;1587;-46
2023/04/11 04:06:34;;;;;;;;;;;;;;;19.94;62.79;100375.53;7397515;19;1035;-46
2023/04/11 04:09:03;;;;;;;;;;;;;;;19.68;63.35;100385.09;7396912;19;1476;-47
2023/04/11 04:11:31;;;;;;;;;;;;;;;19.44;64.15;100391.00;7394047;19;1637;-46
2023/04/11 04:14:01;;;;;;;;;;;;;;;19.29;64.23;100403.19;7318983;19;10595;-46
2023/04/11 04:16:29;;;;;;;;;;;;;;;19.20;64.59;100385.28;7393580;19;1503;-46
2023/04/11 04:19:01;;;;;;;;;;;;;;;19.16;64.66;100389.25;7395219;19;1551;-46
2023/04/11 04:21:31;;;;;;;;;;;;;;;19.21;64.50;100387.81;7396079;19;1405;-46
2023/04/11 04:24:02;;;;;;;;;;;;;;;19.34;64.21;100384.84;7393374;19;1613;-46
2023/04/11 04:26:30;;;;;;;;;;;;;;;19.67;63.25;100377.19;7396406;19;1229;-47
2023/04/11 04:29:03;;;;;;;;;;;;;;;19.90;62.90;100374.97;7395753;19;1532;-46
2023/04/11 04:31:32;;;;;;;;;;;;;;;19.62;63.35;100371.44;7396990;19;1476;-46
2023/04/11 04:34:07;;;;;;;;;;;;;;;19.59;63.14;100382.47;7395943;19;1856;-46
2023/04/11 04:36:45;;;;;;;;;;;;;;;19.62;62.89;100360.72;7397034;19;1185;-46
2023/04/11 04:39:16;;;;;;;;;;;;;;;19.23;64.09;100372.44;7395932;19;1278;-46
2023/04/11 04:41:45;;;;;;;;;;;;;;;19.32;64.91;100360.00;7395949;19;1461;-46
2023/04/11 04:44:14;;;;;;;;;;;;;;;19.49;64.81;100342.28;7395916;19;1487;-47
2023/04/11 04:46:43;;;;;;;;;;;;;;;19.50;64.43;100346.66;7394199;19;1618;-47
2023/04/11 04:49:14;;;;;;;;;;;;;;;19.32;64.45;100343.94;7389256;19;1559;-46
2023/04/11 04:51:42;;;;;;;;;;;;;;;19.10;64.28;100350.50;7394486;19;1515;-46
2023/04/11 04:54:10;;;;;;;;;;;;;;;19.00;64.96;100350.53;7390731;19;1846;-47
2023/04/11 04:56:38;;;;;;;;;;;;;;;19.00;65.42;100345.16;7394267;19;1607;-46
2023/04/11 04:59:07;;;;;;;;;;;;;;;19.56;64.17;100346.06;7394284;19;1524;-46
2023/04/11 05:01:38;;;;;;;;;;;;;;;19.74;63.57;100348.81;7399700;19;1452;-46
2023/04/11 05:04:06;;;;;;;;;;;;;;;19.50;64.03;100352.03;7401724;19;1809;-46
2023/04/11 05:06:37;;;;;;;;;;;;;;;19.38;63.87;100343.34;7395800;19;1222;-46
2023/04/11 05:09:06;;;;;;;;;;;;;;;19.42;63.68;100360.81;7399206;19;1368;-46
2023/04/11 05:11:35;;;;;;;;;;;;;;;19.20;64.87;100353.13;7398107;19;1618;-46
2023/04/11 05:14:03;;;;;;;;;;;;;;;19.37;64.23;100336.25;7396349;19;1853;-46
2023/04/11 05:16:31;;;;;;;;;;;;;;;19.67;63.49;100329.75;7398868;19;1484;-46
2023/04/11 05:19:00;;;;;;;;;;;;;;;19.54;64.18;100342.69;7398516;19;1550;-47
2023/04/11 05:21:28;;;;;;;;;;;;;;;19.52;63.89;100339.31;7402317;19;1264;-46
2023/04/11 05:23:59;;;;;;;;;;;;;;;19.44;64.13;100348.09;7402564;19;1540;-47
2023/04/11 05:26:27;;;;;;;;;;;;;;;19.17;64.63;100345.38;7402779;19;1320;-46
2023/04/11 05:28:55;;;;;;;;;;;;;;;19.35;64.53;100351.66;7402639;19;1558;-46
2023/04/11 05:31:24;;;;;;;;;;;;;;;19.76;63.46;100341.47;7402614;19;1496;-47
2023/04/11 05:33:53;;;;;;;;;;;;;;;19.68;63.49;100325.25;7403004;19;1839;-47
2023/04/11 05:36:21;;;;;;;;;;;;;;;19.56;64.04;100323.78;7403030;19;1825;-46
2023/04/11 05:38:50;;;;;;;;;;;;;;;19.54;63.71;100325.75;7401248;19;1307;-47
2023/04/11 05:41:21;;;;;;;;;;;;;;;19.53;64.00;100334.78;7401604;19;1599;-47
2023/04/11 05:43:49;;;;;;;;;;;;;;;19.28;64.67;100326.44;7401869;19;1653;-47
2023/04/11 05:46:18;;;;;;;;;;;;;;;19.29;64.57;100328.13;7401540;19;1578;-46
2023/04/11 05:48:47;;;;;;;;;;;;;;;19.51;64.07;100326.03;7401932;19;1559;-47
2023/04/11 05:51:15;;;;;;;;;;;;;;;19.38;64.38;100321.88;7401208;19;1294;-46
2023/04/11 05:53:43;;;;;;;;;;;;;;;19.34;64.58;100314.25;7400686;19;1861;-47
2023/04/11 05:56:12;;;;;;;;;;;;;;;19.45;63.98;100317.59;7402423;19;1032;-46
2023/04/11 05:58:44;;;;;;;;;;;;;;;19.08;65.11;100320.31;7400132;19;1654;-46
2023/04/11 06:01:13;;;;;;;;;;;;;;;19.21;64.84;100322.66;7402005;19;1158;-46
2023/04/11 06:03:41;;;;;;;;;;;;;;;19.38;64.43;100311.16;7400827;19;1856;-46
2023/04/11 06:06:10;;;;;;;;;;;;;;;19.33;64.40;100318.78;7401548;19;1500;-46
2023/04/11 06:08:38;;;;;;;;;;;;;;;19.41;64.28;100305.47;7401312;19;1548;-46
2023/04/11 06:11:07;;;;;;;;;;;;;;;19.35;64.44;100289.16;7400148;19;1531;-46
2023/04/11 06:13:35;;;;;;;;;;;;;;;19.00;65.39;100312.16;7401862;19;1218;-47
2023/04/11 06:16:06;;;;;;;;;;;;;;;19.22;64.77;100322.53;7398834;19;1846;-46
2023/04/11 06:18:34;;;;;;;;;;;;;;;19.36;64.52;100301.56;7401178;19;1535;-46
2023/04/11 06:21:03;;;;;;;;;;;;;;;19.27;64.77;100297.94;7400901;19;1496;-47
2023/04/11 06:23:31;;;;;;;;;;;;;;;19.31;64.54;100293.97;7400195;19;1336;-47
2023/04/11 06:26:00;;;;;;;;;;;;;;;19.29;64.35;100301.31;7401189;19;1261;-46
2023/04/11 06:28:28;;;;;;;;;;;;;;;19.03;65.17;100275.19;7400693;19;1218;-46
2023/04/11 06:30:56;;;;;;;;;;;;;;;19.51;63.74;100267.88;7401658;19;1575;-46
2023/04/11 06:33:27;;;;;;;;;;;;;;;19.63;63.40;100272.03;7401556;19;1488;-47
2023/04/11 06:35:55;;;;;;;;;;;;;;;19.43;64.20;100276.66;7398841;19;1868;-46
2023/04/11 06:38:23;;;;;;;;;;;;;;;19.31;64.39;100261.78;7400482;19;1524;-46
2023/04/11 06:40:53;;;;;;;;;;;;;;;19.36;64.54;100270.25;7400382;19;1240;-46
2023/04/11 06:43:21;;;;;;;;;;;;;;;19.03;65.00;100285.06;7400101;19;1551;-46
2023/04/11 06:45:50;;;;;;;;;;;;;;;19.17;64.64;100263.13;7400885;19;1551;-46
2023/04/11 06:48:19;;;;;;;;;;;;;;;19.47;64.06;100278.06;7400115;19;1619;-47
2023/04/11 06:50:52;;;;;;;;;;;;;;;19.35;64.27;100263.19;7399635;19;1228;-47
2023/04/11 06:53:20;;;;;;;;;;;;;;;19.35;64.17;100273.06;7400047;19;1630;-46
2023/04/11 06:55:49;;;;;;;;;;;;;;;19.28;64.15;100279.03;7398854;19;1846;-46
2023/04/11 06:58:18;;;;;;;;;;;;;;;19.13;64.98;100274.31;7399374;19;1810;-49
2023/04/11 07:00:46;;;;;;;;;;;;;;;19.17;64.89;100249.72;7401062;19;1158;-47
2023/04/11 07:03:14;;;;;;;;;;;;;;;19.42;64.07;100268.81;7399059;19;1852;-47
2023/04/11 07:05:43;;;;;;;;;;;;;;;19.28;64.65;100286.22;7399663;19;1324;-47
2023/04/11 07:08:14;;;;;;;;;;;;;;;19.32;64.34;100278.72;7399370;19;1248;-47
2023/04/11 07:10:42;;;;;;;;;;;;;;;19.21;64.57;100280.59;7399174;19;1287;-47
2023/04/11 07:13:10;;;;;;;;;;;;;;;19.00;65.08;100270.13;7400381;19;1146;-47
2023/04/11 07:15:39;;;;;;;;;;;;;;;19.16;64.77;100252.56;7397601;19;1856;-47
2023/04/11 07:18:07;;;;;;;;;;;;;;;19.46;64.10;100260.31;7399645;19;1605;-47
2023/04/11 07:20:35;;;;;;;;;;;;;;;19.32;64.24;100260.81;7399692;19;1562;-47
2023/04/11 07:23:04;;;;;;;;;;;;;;;19.26;64.31;100264.94;7398155;19;1594;-47
2023/04/11 07:25:35;;;;;;;;;;;;;;;19.30;64.00;100265.47;7399663;19;1300;-47
2023/04/11 07:28:06;;;;;;;;;;;;;;;19.14;64.50;100259.91;7399372;19;1578;-47
2023/04/11 07:30:35;;;;;;;;;;;;;;;19.24;64.40;100271.44;7399732;19;1314;-47
2023/04/11 07:33:03;;;;;;;;;;;;;;;19.42;63.92;100258.91;7398746;19;1559;-47
2023/04/11 07:35:33;;;;;;;;;;;;;;;19.26;64.58;100267.63;7397369;19;1844;-47
2023/04/11 07:38:01;;;;;;;;;;;;;;;19.26;64.59;100258.72;7398968;19;1566;-48
2023/04/11 07:40:30;;;;;;;;;;;;;;;19.20;64.62;100264.66;7397790;19;1499;-47
2023/04/11 07:43:00;;;;;;;;;;;;;;;19.11;64.79;100254.84;7397144;19;1559;-47
2023/04/11 07:45:29;;;;;;;;;;;;;;;19.23;64.26;100254.50;7398888;19;1118;-47
2023/04/11 07:47:57;;;;;;;;;;;;;;;19.37;63.72;100234.38;7398906;19;1476;-47
2023/04/11 07:50:25;;;;;;;;;;;;;;;19.24;64.20;100239.28;7398322;19;1772;-47
2023/04/11 07:52:54;;;;;;;;;;;;;;;19.30;64.04;100244.03;7398263;19;1563;-47
2023/04/11 07:55:22;;;;;;;;;;;;;;;19.07;64.54;100227.50;7395879;19;1856;-47
2023/04/11 07:57:51;;;;;;;;;;;;;;;18.98;64.71;100221.22;7397853;19;1623;-47
2023/04/11 08:00:25;;;;;;;;;;;;;;;19.20;64.47;100233.38;7397680;19;1217;-47
2023/04/11 08:02:53;;;;;;;;;;;;;;;19.35;63.87;100241.72;7397246;19;1555;-47
2023/04/11 08:05:21;;;;;;;;;;;;;;;19.19;64.21;100222.78;7397099;19;1245;-47
2023/04/11 08:07:50;;;;;;;;;;;;;;;19.27;63.82;100234.44;7397143;19;1279;-47
2023/04/11 08:10:18;;;;;;;;;;;;;;;18.99;64.70;100225.56;7396944;19;1505;-46
2023/04/11 08:12:46;;;;;;;;;;;;;;;18.95;64.61;100234.06;7398072;19;1031;-46
2023/04/11 08:15:15;;;;;;;;;;;;;;;19.24;64.32;100233.91;7396647;19;1865;-46
2023/04/11 08:17:48;;;;;;;;;;;;;;;19.32;64.03;100239.38;7397402;19;1558;-46
2023/04/11 08:20:17;;;;;;;;;;;;;;;19.19;64.28;100234.34;7397548;19;1546;-46
2023/04/11 08:22:46;;;;;;;;;;;;;;;19.35;64.00;100240.91;7397195;19;1599;-46
2023/04/11 08:25:15;;;;;;;;;;;;;;;19.19;64.30;100225.47;7397802;19;1190;-46
2023/04/11 08:27:43;;;;;;;;;;;;;;;19.15;64.41;100218.72;7396905;19;1536;-46
2023/04/11 08:30:11;;;;;;;;;;;;;;;19.28;63.96;100209.31;7396847;19;1329;-46
2023/04/11 08:32:41;;;;;;;;;;;;;;;19.37;63.93;100202.22;7395289;19;1543;-47
2023/04/11 08:35:12;;;;;;;;;;;;;;;19.28;63.93;100192.41;7394637;19;1822;-48
2023/04/11 08:37:40;;;;;;;;;;;;;;;19.35;63.74;100172.03;7396541;19;1495;-46
2023/04/11 08:40:10;;;;;;;;;;;;;;;19.01;64.37;100153.91;7395308;19;1035;-46
2023/04/11 08:42:38;;;;;;;;;;;;;;;19.10;64.37;100167.41;7396603;19;1861;-46
2023/04/11 08:45:09;;;;;;;;;;;;;;;19.29;63.94;100169.94;7396179;19;1508;-46
2023/04/11 08:47:37;;;;;;;;;;;;;;;19.24;64.12;100170.41;7397005;19;1174;-46
2023/04/11 08:50:06;;;;;;;;;;;;;;;19.22;64.20;100153.66;7394177;19;1622;-46
2023/04/11 08:52:39;;;;;;;;;;;;;;;19.29;63.88;100156.53;7395939;19;1965;-46
2023/04/11 08:55:08;;;;;;;;;;;;;;;18.96;64.72;100150.00;7395318;19;1855;-46
2023/04/11 08:57:36;;;;;;;;;;;;;;;19.08;64.56;100138.09;7396192;19;1677;-46
2023/04/11 09:00:09;;;;;;;;;;;;;;;19.28;64.26;100144.16;7394314;19;1176;-46
2023/04/11 09:02:55;;;;;;;;;;;;;;;19.17;64.24;100139.84;7395693;19;1543;-46
2023/04/11 09:05:27;;;;;;;;;;;;;;;19.16;64.09;100134.63;7395966;19;1549;-46
2023/04/11 09:07:58;;;;;;;;;;;;;;;19.08;64.36;100125.53;7395588;19;1617;-46
2023/04/11 09:10:27;;;;;;;;;;;;;;;18.95;64.70;100117.00;7395633;19;1582;-46
2023/04/11 09:12:56;;;;;;;;;;;;;;;19.16;64.42;100113.19;7396789;19;1241;-46
2023/04/11 09:15:25;;;;;;;;;;;;;;;19.32;63.87;100108.00;7395115;19;1853;-46
2023/04/11 09:17:54;;;;;;;;;;;;;;;19.24;64.08;100099.88;7395352;19;1831;-46
2023/04/11 09:20:25;;;;;;;;;;;;;;;19.32;63.89;100108.00;7394701;19;1793;-46
2023/04/11 09:22:53;;;;;;;;;;;;;;;19.24;64.09;100102.56;7395638;19;1654;-46
2023/04/11 09:25:25;;;;;;;;;;;;;;;19.01;64.74;100094.13;7396341;19;1087;-46
2023/04/11 09:28:08;;;;;;;;;;;;;;;19.12;64.10;100075.16;7395054;19;1488;-46
2023/04/11 09:30:37;;;;;;;;;;;;;;;19.32;63.92;100083.00;7395821;19;1170;-46
2023/04/11 09:33:20;;;;;;;;;;;;;;;19.16;64.16;100081.03;7395224;19;1594;-47
2023/04/11 09:35:48;;;;;;;;;;;;;;;19.21;63.85;100081.41;7391348;19;1853;-47
2023/04/11 09:38:28;;;;;;;;;;;;;;;19.03;64.62;100087.59;7394891;19;1497;-47
2023/04/11 09:40:59;;;;;;;;;;;;;;;19.05;64.32;100074.91;7394356;19;1269;-46
2023/04/11 09:43:28;;;;;;;;;;;;;;;19.30;63.84;100064.41;7394971;19;1504;-46
2023/04/11 09:46:17;;;;;;;;;;;;;;;19.28;63.62;100079.81;7400580;19;1534;-46
2023/04/11 09:48:45;;;;;;;;;;;;;;;19.27;63.71;100080.81;7401980;19;1560;-46
2023/04/11 09:51:13;;;;;;;;;;;;;;;19.24;63.35;100065.88;7401935;19;1252;-46
2023/04/11 09:53:42;;;;;;;;;;;;;;;18.95;64.44;100058.06;7401117;19;1496;-46
2023/04/11 09:56:13;;;;;;;;;;;;;;;19.13;64.22;100043.81;7398726;19;1846;-46
2023/04/11 09:58:42;;;;;;;;;;;;;;;19.36;63.53;100050.41;7399817;19;1124;-46
2023/04/11 10:01:12;;;;;;;;;;;;;;;19.29;64.19;100060.03;7401859;19;1546;-46
2023/04/11 10:03:41;;;;;;;;;;;;;;;19.24;63.54;100054.31;7401163;19;1292;-46
2023/04/11 10:06:11;;;;;;;;;;;;;;;19.03;63.78;100051.94;7401371;19;1136;-46
2023/04/11 10:08:41;;;;;;;;;;;;;;;18.97;64.37;100039.16;7401347;19;1625;-46
2023/04/11 10:11:10;;;;;;;;;;;;;;;19.27;63.69;100044.09;7401027;19;1935;-46
2023/04/11 10:13:42;;;;;;;;;;;;;;;19.37;63.68;100052.06;7401610;19;1335;-47
2023/04/11 10:16:12;;;;;;;;;;;;;;;19.17;64.23;100037.16;7400155;19;1861;-46
2023/04/11 10:19:00;;;;;;;;;;;;;;;19.19;63.76;100033.31;7400665;19;1555;-46
2023/04/11 10:21:41;;;;;;;;;;;;;;;18.96;64.46;100054.41;7400122;19;1627;-46
2023/04/11 10:24:10;;;;;;;;;;;;;;;18.97;64.53;100058.75;7399669;19;1488;-46
2023/04/11 10:26:49;;;;;;;;;;;;;;;19.33;63.67;100045.34;7401029;19;1550;-46
2023/04/11 10:29:32;;;;;;;;;;;;;;;19.32;63.74;100054.38;7400952;19;1503;-46
2023/04/11 10:32:19;;;;;;;;;;;;;;;19.16;63.58;100056.91;7398944;19;2202;-46
2023/04/11 10:35:03;;;;;;;;;;;;;;;19.15;63.73;100047.19;7400525;19;1488;-46
2023/04/11 10:37:33;;;;;;;;;;;;;;;19.04;64.21;100048.28;7398410;19;1840;-46
2023/04/11 10:40:08;;;;;;;;;;;;;;;19.28;63.83;100047.66;7400773;19;1539;-46
2023/04/11 10:42:37;;;;;;;;;;;;;;;19.52;63.11;100030.91;7400253;19;1497;-46
2023/04/11 10:45:22;;;;;;;;;;;;;;;19.42;63.43;100033.69;7400535;19;1571;-46
2023/04/11 10:48:11;;;;;;;;;;;;;;;19.24;63.72;100023.00;7400207;19;1468;-46
2023/04/11 10:50:41;;;;;;;;;;;;;;;18.97;64.26;100012.38;7401051;19;1722;-47
2023/04/11 10:53:13;;;;;;;;;;;;;;;18.97;64.80;100034.63;7398808;19;1287;-46
2023/04/11 10:55:48;;;;;;;;;;;;;;;19.30;63.93;100023.34;7397607;19;1851;-46
2023/04/11 10:58:18;;;;;;;;;;;;;;;19.42;63.23;100022.97;7397970;19;1571;-46
2023/04/11 11:01:02;;;;;;;;;;;;;;;19.26;63.70;100017.47;7398750;19;1481;-47
2023/04/11 11:03:34;;;;;;;;;;;;;;;19.14;63.81;100008.84;7398865;19;2064;-46
2023/04/11 11:06:03;;;;;;;;;;;;;;;18.89;64.49;100007.78;7399335;19;1530;-46
2023/04/11 11:08:32;;;;;;;;;;;;;;;19.07;64.25;100013.94;7399452;19;1536;-46
2023/04/11 11:11:01;;;;;;;;;;;;;;;19.47;63.20;100007.22;7398658;19;1185;-46
2023/04/11 11:13:40;;;;;;;;;;;;;;;19.40;63.43;100018.75;7400157;19;1169;-46
2023/04/11 11:16:09;;;;;;;;;;;;;;;19.22;63.89;100011.59;7398052;19;1851;-47
2023/04/11 11:18:40;;;;;;;;;;;;;;;18.98;63.56;100006.84;7397078;19;1397;-47
2023/04/11 11:21:09;;;;;;;;;;;;;;;18.94;63.93;100010.84;7398970;19;1508;-46
2023/04/11 11:23:37;;;;;;;;;;;;;;;19.26;63.45;100004.06;7399621;19;1306;-47
2023/04/11 11:26:06;;;;;;;;;;;;;;;19.39;62.89;99996.44;7398311;19;1524;-47
2023/04/11 11:28:34;;;;;;;;;;;;;;;19.31;63.25;99996.38;7398121;19;1637;-47
2023/04/11 11:31:02;;;;;;;;;;;;;;;19.26;63.59;99985.31;7400224;19;1285;-46
2023/04/11 11:33:31;;;;;;;;;;;;;;;19.08;63.71;99988.84;7398823;19;1555;-46
2023/04/11 11:36:04;;;;;;;;;;;;;;;18.98;64.23;99982.75;7397776;19;1863;-47
2023/04/11 11:38:32;;;;;;;;;;;;;;;19.31;63.51;99969.59;7397855;19;1165;-46
2023/04/11 11:41:01;;;;;;;;;;;;;;;19.36;63.07;99975.31;7398147;19;1409;-47
2023/04/11 11:43:29;;;;;;;;;;;;;;;19.34;63.45;99979.13;7398183;19;1535;-47
2023/04/11 11:46:12;;;;;;;;;;;;;;;19.28;63.38;99973.44;7395949;19;1907;-47
2023/04/11 11:48:41;;;;;;;;;;;;;;;19.00;63.92;99975.41;7397302;19;1447;-46
2023/04/11 11:51:13;;;;;;;;;;;;;;;19.11;63.84;99970.78;7396946;19;1357;-47
2023/04/11 11:53:41;;;;;;;;;;;;;;;19.43;63.14;99979.03;7397102;19;1489;-47
2023/04/11 11:56:16;;;;;;;;;;;;;;;19.40;63.07;99994.63;7397574;19;1843;-47
2023/04/11 11:58:45;;;;;;;;;;;;;;;19.24;63.47;99976.59;7396890;19;1464;-46
2023/04/11 12:01:14;;;;;;;;;;;;;;;19.22;63.68;99990.13;7397156;19;1360;-46
2023/04/11 12:03:42;;;;;;;;;;;;;;;18.97;64.18;99983.72;7397764;19;1852;-47
2023/04/11 12:06:14;;;;;;;;;;;;;;;19.00;64.14;99975.41;7397171;19;1460;-47
2023/04/11 12:08:49;;;;;;;;;;;;;;;19.45;63.21;99992.31;7396790;19;1858;-47
2023/04/11 12:11:17;;;;;;;;;;;;;;;19.39;63.44;99979.53;7396598;19;1551;-47
2023/04/11 12:13:46;;;;;;;;;;;;;;;19.27;63.68;99974.41;7398418;19;1253;-47
2023/04/11 12:16:15;;;;;;;;;;;;;;;19.22;63.73;99973.22;7396790;19;1858;-47
2023/04/11 12:18:44;;;;;;;;;;;;;;;19.02;64.21;99973.41;7397250;19;1602;-47
2023/04/11 12:21:16;;;;;;;;;;;;;;;19.15;64.05;99977.50;7396273;19;1278;-47
2023/04/11 12:23:45;;;;;;;;;;;;;;;19.61;62.62;99967.44;7396912;19;1535;-46
2023/04/11 12:26:13;;;;;;;;;;;;;;;19.62;62.22;99961.06;7396882;19;1242;-46
2023/04/11 12:28:41;;;;;;;;;;;;;;;19.39;63.11;99979.53;7397160;19;1496;-46
2023/04/11 12:31:11;;;;;;;;;;;;;;;19.24;63.53;99987.31;7396936;19;1293;-46
2023/04/11 12:33:39;;;;;;;;;;;;;;;18.98;63.75;99971.16;7396872;19;2384;-46
2023/04/11 12:36:09;;;;;;;;;;;;;;;19.01;64.18;99977.06;7396240;19;1841;-46
2023/04/11 12:38:39;;;;;;;;;;;;;;;19.43;62.90;99981.72;7395415;19;1350;-46
2023/04/11 12:41:08;;;;;;;;;;;;;;;19.68;62.15;99973.84;7394856;19;1460;-46
2023/04/11 12:43:36;;;;;;;;;;;;;;;19.42;63.00;99965.81;7396603;19;1126;-46
2023/04/11 12:46:05;;;;;;;;;;;;;;;19.22;63.54;99971.38;7396411;19;1630;-46
2023/04/11 12:48:33;;;;;;;;;;;;;;;19.11;63.59;99968.09;7396970;19;1170;-47
2023/04/11 12:51:01;;;;;;;;;;;;;;;18.92;64.09;99959.25;7396311;19;1559;-46
2023/04/11 12:53:30;;;;;;;;;;;;;;;19.47;62.68;99969.69;7396270;19;1563;-47
2023/04/11 12:56:01;;;;;;;;;;;;;;;19.71;62.33;99962.81;7396257;19;1839;-46
2023/04/11 12:58:29;;;;;;;;;;;;;;;19.62;62.18;99956.53;7395837;19;1186;-46
2023/04/11 13:00:58;;;;;;;;;;;;;;;19.39;62.87;99969.63;7395217;19;1211;-46